Terminal Aerodrome Forecast
Issued by NWS

Home | Current Version | Previous Version | Text Only | Print | Product List | Glossary On
Versions: 1 2 3 4 5 6 7 8 9 10 11 12 13 14 15 16 17 18 19
000
FTUS46 KSEW 251100
TAFHQM
TAF
KHQM 251124Z 2512/2612 05003KT 5SM BR OVC040
     FM251400 VRB03KT P6SM OVC020
     FM251900 24008KT P6SM BKN050
     FM260000 25009KT P6SM BKN100
     FM260600 27002KT P6SM BKN030=

USA.gov is the U.S. government's official web portal to all federal, state and local government web resources and services.